createdAt,value
2023-04-11T00:02:47.129Z,94.00
2023-04-11T00:05:51.810Z,94.10
2023-04-11T00:08:55.061Z,94.20
2023-04-11T00:11:58.436Z,94.10
2023-04-11T00:15:01.582Z,94.10
2023-04-11T00:18:06.509Z,94.20
2023-04-11T00:21:11.437Z,94.50
2023-04-11T00:24:14.509Z,94.50
2023-04-11T00:27:18.241Z,94.60
2023-04-11T00:30:22.731Z,94.70
2023-04-11T00:33:25.933Z,94.80
2023-04-11T00:36:31.812Z,95.00
2023-04-11T00:39:35.394Z,95.20
2023-04-11T00:42:38.498Z,95.20
2023-04-11T00:45:41.664Z,95.40
2023-04-11T00:48:45.618Z,95.40
2023-04-11T00:51:50.154Z,95.40
2023-04-11T00:54:53.347Z,95.50
2023-04-11T00:57:57.108Z,95.70
2023-04-11T01:01:00.729Z,95.80
2023-04-11T01:04:04.183Z,95.80
2023-04-11T01:07:11.036Z,95.80
2023-04-11T01:10:15.011Z,96.00
2023-04-11T01:13:18.425Z,96.00
2023-04-11T01:16:21.978Z,96.20
2023-04-11T01:19:26.987Z,96.50
2023-04-11T01:22:31.852Z,96.50
2023-04-11T01:25:36.378Z,96.50
2023-04-11T01:28:39.425Z,96.60
2023-04-11T01:31:42.527Z,96.60
2023-04-11T01:34:48.230Z,96.80
2023-04-11T01:37:51.364Z,97.00
2023-04-11T01:40:56.949Z,97.00
2023-04-11T01:44:00.306Z,97.40
2023-04-11T01:47:03.534Z,97.10
2023-04-11T01:50:08.488Z,97.00
2023-04-11T01:53:11.534Z,97.10
2023-04-11T01:56:16.369Z,97.10
2023-04-11T01:59:19.617Z,97.20
2023-04-11T02:02:22.874Z,97.30
2023-04-11T02:05:26.262Z,97.30
2023-04-11T02:08:29.391Z,97.30
2023-04-11T02:11:33.809Z,97.40
2023-04-11T02:14:44.867Z,97.40
2023-04-11T02:17:48.288Z,97.90
2023-04-11T02:20:51.409Z,97.70
2023-04-11T02:23:54.450Z,97.90
2023-04-11T02:26:58.890Z,98.00
2023-04-11T02:30:05.761Z,98.10
2023-04-11T02:33:08.827Z,98.20
2023-04-11T02:36:12.622Z,98.30
2023-04-11T02:39:15.941Z,98.30
2023-04-11T02:42:20.426Z,98.30
2023-04-11T02:45:23.798Z,98.40
2023-04-11T02:48:26.907Z,98.30
2023-04-11T02:51:29.980Z,98.20
2023-04-11T02:54:33.048Z,98.30
2023-04-11T02:57:37.854Z,98.30
2023-04-11T03:00:41.878Z,98.30
2023-04-11T03:03:45.177Z,98.30
2023-04-11T03:06:51.114Z,98.30
2023-04-11T03:09:54.152Z,98.70
2023-04-11T03:12:58.622Z,98.40
2023-04-11T03:16:01.705Z,98.40
2023-04-11T03:19:05.959Z,98.50
2023-04-11T03:22:11.735Z,98.50
2023-04-11T03:25:14.931Z,98.50
2023-04-11T03:28:19.393Z,98.50
2023-04-11T03:31:22.591Z,98.60
2023-04-11T03:34:26.144Z,98.70
2023-04-11T03:37:29.303Z,98.70
2023-04-11T03:40:32.468Z,98.80
2023-04-11T03:43:36.924Z,98.80
2023-04-11T03:46:40.055Z,98.60
2023-04-11T03:49:43.168Z,98.50
2023-04-11T03:52:46.352Z,98.50
2023-04-11T03:55:50.071Z,98.50
2023-04-11T03:58:54.828Z,98.50
2023-04-11T04:01:58.235Z,98.40
2023-04-11T04:05:01.557Z,98.50
2023-04-11T04:08:04.762Z,98.40
2023-04-11T04:11:08.001Z,98.40
2023-04-11T04:14:12.501Z,98.50
2023-04-11T04:17:16.799Z,98.60
2023-04-11T04:20:19.982Z,98.70
2023-04-11T04:23:23.956Z,98.70
2023-04-11T04:26:30.059Z,98.70
2023-04-11T04:29:38.471Z,98.70
2023-04-11T04:32:43.810Z,98.60
2023-04-11T04:35:47.179Z,98.60
2023-04-11T04:38:50.489Z,98.60
2023-04-11T04:42:01.610Z,98.60
2023-04-11T04:45:06.780Z,98.60
2023-04-11T04:48:09.912Z,98.60
2023-04-11T04:51:13.032Z,98.50
2023-04-11T04:54:19.394Z,98.60
2023-04-11T04:57:22.562Z,98.70
2023-04-11T05:00:26.997Z,98.70
2023-04-11T05:03:30.569Z,98.80
2023-04-11T05:06:33.896Z,98.80
2023-04-11T05:09:37.080Z,98.80
2023-04-11T05:12:40.616Z,98.80
2023-04-11T05:15:50.129Z,98.70
2023-04-11T05:18:53.310Z,98.70
2023-04-11T05:21:56.352Z,98.70
2023-04-11T05:24:59.538Z,98.80
2023-04-11T05:28:02.788Z,98.80
2023-04-11T05:31:08.466Z,98.70
2023-04-11T05:34:11.711Z,98.60
2023-04-11T05:37:14.785Z,98.50
2023-04-11T05:40:17.831Z,98.30
2023-04-11T05:43:21.411Z,98.00
2023-04-11T05:46:25.985Z,97.90
2023-04-11T05:49:29.190Z,97.70
2023-04-11T05:52:32.212Z,97.30
2023-04-11T05:55:35.462Z,97.00
2023-04-11T05:58:38.586Z,96.90
2023-04-11T06:01:43.049Z,96.60
2023-04-11T06:04:46.211Z,96.30
2023-04-11T06:07:49.440Z,95.40
2023-04-11T06:10:52.515Z,92.30
2023-04-11T06:13:55.744Z,90.20
2023-04-11T06:17:00.754Z,90.00
2023-04-11T06:20:06.213Z,89.90
2023-04-11T06:23:09.480Z,90.60
2023-04-11T06:26:12.531Z,91.30
2023-04-11T06:29:15.646Z,91.80
2023-04-11T06:32:20.568Z,92.20
2023-04-11T06:35:25.010Z,92.30
2023-04-11T06:38:28.116Z,92.60
2023-04-11T06:41:31.216Z,92.80
2023-04-11T06:44:34.453Z,92.80
2023-04-11T06:47:38.998Z,92.90
2023-04-11T06:50:42.127Z,93.00
2023-04-11T06:53:45.236Z,92.70
2023-04-11T06:56:50.702Z,92.80
2023-04-11T06:59:53.776Z,93.30
2023-04-11T07:02:59.556Z,94.20
2023-04-11T07:06:03.309Z,94.40
2023-04-11T07:09:07.033Z,94.80
2023-04-11T07:12:10.166Z,94.40
2023-04-11T07:15:13.327Z,94.30
2023-04-11T07:18:17.805Z,94.30
2023-04-11T07:21:21.381Z,93.70
2023-04-11T07:24:24.438Z,93.10
2023-04-11T07:27:27.498Z,93.10
2023-04-11T07:30:30.625Z,92.60
2023-04-11T07:33:35.175Z,92.60
2023-04-11T07:36:38.261Z,91.30
2023-04-11T07:39:41.669Z,90.50
2023-04-11T07:42:46.268Z,90.30
2023-04-11T07:45:49.385Z,90.50
2023-04-11T07:48:53.824Z,90.30
2023-04-11T07:51:56.916Z,90.20
2023-04-11T07:55:00.321Z,90.10
2023-04-11T07:58:03.425Z,90.00
2023-04-11T08:01:07.210Z,90.30
2023-04-11T08:04:12.393Z,90.20
2023-04-11T08:07:16.066Z,89.70
2023-04-11T08:10:19.289Z,89.50
2023-04-11T08:13:22.382Z,89.30
2023-04-11T08:16:25.561Z,89.20
2023-04-11T08:19:29.991Z,88.50
2023-04-11T08:22:34.339Z,87.00
2023-04-11T08:25:37.684Z,86.30
2023-04-11T08:28:42.919Z,85.50
2023-04-11T08:31:47.070Z,84.30
2023-04-11T08:34:51.604Z,83.30
2023-04-11T08:37:54.835Z,83.40
2023-04-11T08:40:57.950Z,83.20
2023-04-11T08:44:01.804Z,84.70
2023-04-11T08:47:06.935Z,84.80
2023-04-11T08:50:12.047Z,83.00
2023-04-11T08:53:16.134Z,83.40
2023-04-11T08:56:19.256Z,82.20
2023-04-11T08:59:22.321Z,80.70
2023-04-11T09:02:25.663Z,81.10
2023-04-11T09:05:32.207Z,83.30
2023-04-11T09:08:40.440Z,83.70
2023-04-11T09:11:53.799Z,84.40
2023-04-11T09:14:56.933Z,84.40
2023-04-11T09:18:01.017Z,84.80
2023-04-11T09:21:08.103Z,84.90
2023-04-11T09:24:17.811Z,85.20
2023-04-11T09:27:24.521Z,84.90
2023-04-11T09:30:28.104Z,84.50
2023-04-11T09:33:31.757Z,84.60
2023-04-11T09:36:36.357Z,83.50
2023-04-11T09:39:39.468Z,83.20
2023-04-11T09:42:43.143Z,83.00
2023-04-11T09:45:54.167Z,82.80
2023-04-11T09:48:58.164Z,82.20
2023-04-11T09:52:03.200Z,82.30
2023-04-11T09:55:08.762Z,82.40
2023-04-11T09:58:13.785Z,81.60
2023-04-11T10:01:20.054Z,82.10
2023-04-11T10:04:23.535Z,81.30
2023-04-11T10:07:30.044Z,80.90
2023-04-11T10:10:33.808Z,81.70
2023-04-11T10:13:41.508Z,83.40
2023-04-11T10:17:12.674Z,83.30
2023-04-11T10:20:45.056Z,81.50
2023-04-11T10:24:11.853Z,82.20
2023-04-11T10:27:15.971Z,82.30
2023-04-11T10:30:19.154Z,81.90
2023-04-11T10:33:26.062Z,82.10
2023-04-11T10:36:29.189Z,82.90
2023-04-11T10:40:10.207Z,83.30
2023-04-11T10:43:21.446Z,82.90
2023-04-11T10:46:25.722Z,83.80
2023-04-11T10:49:36.723Z,83.50
2023-04-11T10:52:39.963Z,82.00
2023-04-11T10:55:47.310Z,77.40
2023-04-11T10:58:51.916Z,77.40
2023-04-11T11:01:56.241Z,76.00
2023-04-11T11:04:59.434Z,72.90
2023-04-11T11:08:02.568Z,69.60
2023-04-11T11:11:08.706Z,67.00
2023-04-11T11:14:11.729Z,66.80
2023-04-11T11:17:16.504Z,67.10
2023-04-11T11:20:21.002Z,66.90
2023-04-11T11:23:24.277Z,67.10
2023-04-11T11:26:42.448Z,66.20
2023-04-11T11:29:45.766Z,65.70
2023-04-11T11:32:48.844Z,65.30
2023-04-11T11:35:54.161Z,64.90
2023-04-11T11:38:57.621Z,64.30
2023-04-11T11:42:03.596Z,62.90
2023-04-11T11:45:16.845Z,62.00
2023-04-11T11:48:25.047Z,61.20
2023-04-11T11:51:28.332Z,60.50
2023-04-11T11:54:31.419Z,59.80
2023-04-11T11:57:36.484Z,59.10
2023-04-11T12:00:41.160Z,58.50
2023-04-11T12:03:48.355Z,61.10
2023-04-11T12:06:51.573Z,62.20
2023-04-11T12:09:58.952Z,62.60
2023-04-11T12:13:03.422Z,60.00
2023-04-11T12:16:07.386Z,60.40
2023-04-11T12:19:10.578Z,60.20
2023-04-11T12:22:13.637Z,60.00
2023-04-11T12:25:16.814Z,58.30
2023-04-11T12:28:21.618Z,57.70
2023-04-11T12:31:25.324Z,57.60
2023-04-11T12:34:28.653Z,57.20
2023-04-11T12:37:32.213Z,56.30
2023-04-11T12:40:35.544Z,56.00
2023-04-11T12:43:40.067Z,55.90
2023-04-11T12:46:43.740Z,55.80
2023-04-11T12:49:47.015Z,55.20
2023-04-11T12:52:50.067Z,55.30
2023-04-11T12:55:53.175Z,55.20
2023-04-11T12:58:57.958Z,54.40
2023-04-11T13:02:01.486Z,54.30
2023-04-11T13:05:06.680Z,53.80
2023-04-11T13:08:09.857Z,53.30
2023-04-11T13:11:13.064Z,53.90
2023-04-11T13:14:17.548Z,52.50
2023-04-11T13:17:20.712Z,50.90
2023-04-11T13:20:25.811Z,50.70
2023-04-11T13:23:28.878Z,50.10
2023-04-11T13:26:32.008Z,49.20
2023-04-11T13:29:36.557Z,49.60
2023-04-11T13:32:39.948Z,49.60
2023-04-11T13:35:43.107Z,50.50
2023-04-11T13:38:46.405Z,50.50
2023-04-11T13:41:49.585Z,50.90
2023-04-11T13:44:54.020Z,50.90
2023-04-11T13:47:58.015Z,50.40
2023-04-11T13:51:01.184Z,50.30
2023-04-11T13:54:04.302Z,50.50
2023-04-11T13:57:09.526Z,49.90
2023-04-11T14:00:15.669Z,50.20
2023-04-11T14:03:19.000Z,50.00
2023-04-11T14:06:22.511Z,50.20
2023-04-11T14:09:25.710Z,50.90
2023-04-11T14:12:28.824Z,51.00
2023-04-11T14:15:34.216Z,50.20
2023-04-11T14:18:37.434Z,50.00
2023-04-11T14:21:40.731Z,50.30
2023-04-11T14:24:43.959Z,51.00
2023-04-11T14:27:47.105Z,50.80
2023-04-11T14:30:51.691Z,50.10
2023-04-11T14:33:55.052Z,49.80
2023-04-11T14:36:58.344Z,49.80
2023-04-11T14:40:01.518Z,50.00
2023-04-11T14:43:06.287Z,50.00
2023-04-11T14:46:10.808Z,50.30
2023-04-11T14:49:14.004Z,50.30
2023-04-11T14:52:17.113Z,50.50
2023-04-11T14:55:20.539Z,51.00
2023-04-11T14:58:23.727Z,51.50
2023-04-11T15:01:28.239Z,52.40
2023-04-11T15:04:31.398Z,53.40
2023-04-11T15:07:34.538Z,53.30
2023-04-11T15:10:37.646Z,53.80
2023-04-11T15:13:40.769Z,53.70
2023-04-11T15:16:45.219Z,53.60
2023-04-11T15:19:48.330Z,53.90
2023-04-11T15:22:51.424Z,54.10
2023-04-11T15:25:55.420Z,55.10
2023-04-11T15:28:58.473Z,55.20
2023-04-11T15:32:04.575Z,55.90
2023-04-11T15:35:08.289Z,56.50
2023-04-11T15:38:11.818Z,57.40
2023-04-11T15:41:14.981Z,57.60
2023-04-11T15:44:18.014Z,58.20
2023-04-11T15:47:22.804Z,58.80
2023-04-11T15:50:25.935Z,59.60
2023-04-11T15:53:29.019Z,60.80
2023-04-11T15:56:33.328Z,61.40
2023-04-11T15:59:38.079Z,61.90
2023-04-11T16:02:45.177Z,62.40
2023-04-11T16:05:50.915Z,61.00
2023-04-11T16:08:55.502Z,60.80
2023-04-11T16:11:58.753Z,60.60
2023-04-11T16:15:05.231Z,59.80
2023-04-11T16:18:09.698Z,60.00
2023-04-11T16:21:14.724Z,60.60
2023-04-11T16:24:18.661Z,61.80
2023-04-11T16:27:21.848Z,62.50
2023-04-11T16:30:25.379Z,63.10
2023-04-11T16:33:30.156Z,63.20
2023-04-11T16:36:34.629Z,63.50
2023-04-11T16:39:38.049Z,64.30
2023-04-11T16:42:41.521Z,64.30
2023-04-11T16:45:44.760Z,63.50
2023-04-11T16:48:49.302Z,62.70
2023-04-11T16:51:52.400Z,63.70
2023-04-11T16:54:55.675Z,63.50
2023-04-11T16:57:58.779Z,64.90
2023-04-11T17:01:02.210Z,65.20
2023-04-11T17:04:07.167Z,63.90
2023-04-11T17:07:11.075Z,63.70
2023-04-11T17:10:14.280Z,63.20
2023-04-11T17:13:18.643Z,62.40
2023-04-11T17:16:21.880Z,58.90
2023-04-11T17:19:26.465Z,57.60
2023-04-11T17:22:29.538Z,57.60
2023-04-11T17:25:32.668Z,56.20
2023-04-11T17:28:36.357Z,53.00
2023-04-11T17:31:39.483Z,52.80
2023-04-11T17:34:44.322Z,52.20
2023-04-11T17:37:47.900Z,52.20
2023-04-11T17:40:52.337Z,51.60
2023-04-11T17:43:57.598Z,51.80
2023-04-11T17:47:00.929Z,52.10
2023-04-11T17:50:06.519Z,51.80
2023-04-11T17:53:09.604Z,51.70
2023-04-11T17:56:12.725Z,51.80
2023-04-11T17:59:17.191Z,52.20
2023-04-11T18:02:20.477Z,52.30
2023-04-11T18:05:27.350Z,52.80
2023-04-11T18:08:49.086Z,53.20
2023-04-11T18:11:53.692Z,54.50
2023-04-11T18:14:57.117Z,55.70
2023-04-11T18:18:00.693Z,56.90
2023-04-11T18:21:07.759Z,58.00
2023-04-11T18:24:11.222Z,58.90
2023-04-11T18:27:14.734Z,59.50
2023-04-11T18:30:18.365Z,59.60
2023-04-11T18:33:24.622Z,59.60
2023-04-11T18:36:29.264Z,59.60
2023-04-11T18:39:32.393Z,59.80
2023-04-11T18:42:35.622Z,60.10
2023-04-11T18:45:39.443Z,61.00
2023-04-11T18:48:43.016Z,62.20
2023-04-11T18:51:48.514Z,62.60
2023-04-11T18:54:52.226Z,62.20
2023-04-11T18:57:58.588Z,62.80
2023-04-11T19:01:14.567Z,63.50
2023-04-11T19:04:20.873Z,64.00
2023-04-11T19:07:26.261Z,64.40
2023-04-11T19:10:29.981Z,65.00
2023-04-11T19:13:34.292Z,65.40
2023-04-11T19:16:38.102Z,65.70
2023-04-11T19:19:41.880Z,66.30
2023-04-11T19:22:48.366Z,66.80
2023-04-11T19:25:52.172Z,66.90
2023-04-11T19:28:55.887Z,66.70
2023-04-11T19:32:00.391Z,66.60
2023-04-11T19:35:04.958Z,66.60
2023-04-11T19:38:13.604Z,66.90
2023-04-11T19:41:19.884Z,65.40
2023-04-11T19:44:23.007Z,64.70
2023-04-11T19:47:27.565Z,63.90
2023-04-11T19:50:32.753Z,62.30
2023-04-11T19:53:40.137Z,61.50
2023-04-11T19:56:45.710Z,60.70
2023-04-11T19:59:49.670Z,59.50
2023-04-11T20:02:55.242Z,58.50
2023-04-11T20:05:59.329Z,57.40
2023-04-11T20:09:05.506Z,57.00
2023-04-11T20:12:10.338Z,55.50
2023-04-11T20:15:14.891Z,54.70
2023-04-11T20:18:19.383Z,54.00
2023-04-11T20:21:23.219Z,53.40
2023-04-11T20:24:30.732Z,52.80
2023-04-11T20:27:35.075Z,53.10
2023-04-11T20:30:39.867Z,53.20
2023-04-11T20:33:44.245Z,56.30
2023-04-11T20:36:50.232Z,58.30
2023-04-11T20:39:54.713Z,58.50
2023-04-11T20:43:00.237Z,58.50
2023-04-11T20:46:08.323Z,58.90
2023-04-11T20:49:11.952Z,59.30
2023-04-11T20:52:17.662Z,59.80
2023-04-11T20:55:22.204Z,60.50
2023-04-11T20:58:25.584Z,61.10
2023-04-11T21:01:32.542Z,61.90
2023-04-11T21:04:35.930Z,62.20
2023-04-11T21:07:43.300Z,62.50
2023-04-11T21:10:47.924Z,62.50
2023-04-11T21:13:51.437Z,61.60
2023-04-11T21:16:54.500Z,59.90
2023-04-11T21:19:57.598Z,59.10
2023-04-11T21:23:00.775Z,59.00
2023-04-11T21:26:05.448Z,59.00
2023-04-11T21:29:09.462Z,59.10
2023-04-11T21:32:13.518Z,59.40
2023-04-11T21:35:16.661Z,59.50
2023-04-11T21:38:19.821Z,59.30
2023-04-11T21:41:24.412Z,59.30
2023-04-11T21:44:27.514Z,59.30
2023-04-11T21:47:30.665Z,59.90
2023-04-11T21:50:33.765Z,58.20
2023-04-11T21:53:36.894Z,58.70
2023-04-11T21:56:43.682Z,58.00
2023-04-11T21:59:47.109Z,58.40
2023-04-11T22:02:50.323Z,58.20
2023-04-11T22:05:53.599Z,58.10
2023-04-11T22:08:58.284Z,57.80
2023-04-11T22:12:02.801Z,57.90
2023-04-11T22:15:07.237Z,58.00
2023-04-11T22:18:11.415Z,58.20
2023-04-11T22:21:19.703Z,58.30
2023-04-11T22:24:30.468Z,58.20
2023-04-11T22:27:35.508Z,58.30
2023-04-11T22:30:38.822Z,58.40
2023-04-11T22:33:42.077Z,58.40
2023-04-11T22:36:45.452Z,58.50
2023-04-11T22:39:49.283Z,58.70
2023-04-11T22:42:55.207Z,58.90
2023-04-11T22:45:58.585Z,59.10
2023-04-11T22:49:01.893Z,59.20
2023-04-11T22:52:05.314Z,59.50
2023-04-11T22:55:10.280Z,59.40
2023-04-11T22:58:15.591Z,60.00
2023-04-11T23:01:19.073Z,60.70
2023-04-11T23:04:22.844Z,60.80
2023-04-11T23:07:26.515Z,60.80
2023-04-11T23:10:29.739Z,60.90
2023-04-11T23:13:34.655Z,60.70
2023-04-11T23:16:38.042Z,60.70
2023-04-11T23:19:41.641Z,60.50
2023-04-11T23:22:45.658Z,60.80
2023-04-11T23:25:49.705Z,61.00
2023-04-11T23:28:54.731Z,61.00
2023-04-11T23:31:57.929Z,61.00
2023-04-11T23:35:01.648Z,61.00
2023-04-11T23:38:04.945Z,61.10
2023-04-11T23:41:08.488Z,61.10
2023-04-11T23:44:13.141Z,61.40
2023-04-11T23:47:16.389Z,61.60
2023-04-11T23:50:19.570Z,61.60
2023-04-11T23:53:22.786Z,61.70
2023-04-11T23:56:26.262Z,62.20
2023-04-11T23:59:32.016Z,62.20
